Latest Weather Observations for Newcastle Nobbys

IDN60901

Issued at 9:11 pm EDT Sunday 22 January 2017 (issued every 10 minutes, with the page automatically refreshed every 10 minutes)

About weather observations | Map of Sydney area stations | Latest observations for Sydney area | Other Formats
Station Details ID: 061055 Name: NEWCASTLE NOBBYS SIGNAL STATION AWS Lat: -32.92 Lon: 151.80 Height: 33.0 m
Data from the previous 72 hours. | See also: Recent months at Newcastle Nobbys
Date/Time
EDT
Temp
°C
App
Temp
°C
Dew
Point
°C
Rel
Hum
%
Delta-T
°C
Wind Press
QNH
hPa
Press
MSL
hPa
Rain since
9am
mm
Dir  Spd
km/h
Gust
km/h
Spd
kts
Gust
kts
22/09:00pm 22.3 20.9 18.9 81 2.2 ENE 24 33 13 18 - - 0.0
22/08:30pm 22.2 20.4 18.8 81 2.1 ENE 26 33 14 18 - - 0.0
22/08:00pm 22.4 20.3 19.0 81 2.2 ENE 28 35 15 19 - - 0.0
22/07:30pm 22.7 20.0 18.5 77 2.6 ENE 30 39 16 21 - - 0.0
22/07:00pm 23.1 20.9 18.6 76 2.8 ENE 28 35 15 19 - - 0.0
22/06:30pm 23.3 20.7 18.6 75 3.0 E 30 39 16 21 - - 0.0
22/06:00pm 23.5 21.2 18.4 73 3.2 E 28 33 15 18 - - 0.0
22/05:30pm 23.7 21.6 17.2 67 4.0 E 24 30 13 16 - - 0.0
22/05:00pm 23.8 20.8 16.8 65 4.3 E 28 33 15 18 - - 0.0
22/04:30pm 23.9 20.9 16.9 65 4.3 E 28 32 15 17 - - 0.0
22/04:00pm 23.9 21.3 16.9 65 4.3 E 26 30 14 16 - - 0.0
22/03:30pm 24.3 22.1 16.8 63 4.6 E 24 28 13 15 - - 0.0
22/03:00pm 24.1 21.8 16.6 63 4.6 E 24 28 13 15 - - 0.0
22/02:30pm 24.5 22.6 16.7 61 4.8 E 22 24 12 13 - - 0.0
22/02:00pm 24.4 22.8 16.4 61 4.9 E 20 22 11 12 - - 0.0
22/01:30pm 24.6 23.1 16.3 60 5.1 ESE 19 20 10 11 - - 0.0
22/01:00pm 24.4 25.5 18.8 71 3.6 SE 11 13 6 7 - - 0.0
22/12:30pm 24.1 25.3 19.0 73 3.2 SSE 11 13 6 7 - - 0.0
22/12:00pm 23.8 24.4 18.7 73 3.2 SSE 13 13 7 7 - - 0.0
22/11:30am 23.7 24.5 19.0 75 3.0 S 13 15 7 8 - - 0.0
22/11:00am 23.9 24.7 19.0 74 3.1 S 13 13 7 7 - - 0.0
22/10:30am 23.4 24.0 18.5 74 3.1 S 13 15 7 8 - - 0.0
22/10:00am 22.9 22.9 18.2 75 2.9 S 15 19 8 10 - - 0.0
22/09:30am 22.3 21.6 17.4 74 3.0 S 17 20 9 11 - - 0.0
22/09:00am 22.2 21.8 17.1 73 3.1 S 15 20 8 11 - - 0.0
22/08:30am 22.0 21.8 17.6 76 2.7 S 15 19 8 10 - - 0.0
22/08:00am 21.2 21.1 17.8 81 2.1 SSW 15 20 8 11 - - 0.0
22/07:30am 21.0 21.2 17.6 81 2.1 SSW 13 19 7 10 - - 0.0
22/07:00am 20.8 20.8 17.2 80 2.2 SSW 13 19 7 10 - - 0.0
22/06:30am 20.8 21.6 17.2 80 2.2 SSW 9 13 5 7 - - 0.0
22/06:00am 20.9 21.8 17.5 81 2.1 SW 9 13 5 7 - - 0.0
22/05:30am 20.8 22.1 17.6 82 2.0 SSW 7 9 4 5 - - 0.0
22/05:00am 21.0 22.3 17.6 81 2.1 SW 7 9 4 5 - - 0.0
22/04:30am 20.8 21.2 17.2 80 2.2 SW 11 17 6 9 - - 0.0
22/04:00am 21.0 22.1 17.2 79 2.3 SSW 7 11 4 6 - - 0.0
22/03:30am 21.0 22.5 16.6 76 2.7 W 4 6 2 3 - - 0.0
22/03:00am 21.1 22.8 17.1 78 2.4 WNW 4 6 2 3 - - 0.0
22/02:30am 21.9 23.0 17.1 74 2.9 E 7 9 4 5 - - 0.0
22/02:00am 21.9 21.9 16.2 70 3.4 ESE 11 13 6 7 - - 0.0
22/01:30am 22.0 22.3 16.9 73 3.1 ESE 11 11 6 6 - - 0.0
22/01:00am 21.8 21.7 15.9 69 3.5 ESE 11 13 6 7 - - 0.0
22/12:30am 21.9 22.1 16.8 73 3.1 SE 11 13 6 7 - - 0.0
22/12:00am 22.1 20.8 15.7 67 3.8 SE 17 20 9 11 - - 0.0
 
Date/Time
EDT
Temp
°C
App
Temp
°C
Dew
Point
°C
Rel
Hum
%
Delta-T
°C
Wind Press
QNH
hPa
Press
MSL
hPa
Rain since
9am
mm
Dir  Spd
km/h
Gust
km/h
Spd
kts
Gust
kts
21/11:30pm 22.1 20.4 15.7 67 3.8 SE 19 20 10 11 - - 0.0
21/11:00pm 22.0 21.1 15.8 68 3.7 SE 15 17 8 9 - - 0.0
21/10:30pm 22.0 20.6 16.5 71 3.3 SE 19 22 10 12 - - 0.0
21/10:00pm 22.2 21.2 16.5 70 3.5 SE 17 20 9 11 - - 0.0
21/09:30pm 22.0 20.7 15.8 68 3.7 SE 17 19 9 10 - - 0.0
21/09:00pm 22.0 20.5 16.3 70 3.5 SE 19 20 10 11 - - 0.0
21/08:30pm 22.1 21.0 16.4 70 3.5 SE 17 20 9 11 - - 0.0
21/08:00pm 22.1 20.5 16.1 69 3.6 SE 19 22 10 12 - - 0.0
21/07:30pm 22.3 20.9 16.6 70 3.5 SE 19 22 10 12 - - 0.0
21/07:00pm 22.7 21.6 17.4 72 3.3 SSE 19 22 10 12 - - 0.0
21/06:30pm 22.4 22.1 17.3 73 3.1 S 15 17 8 9 - - 0.0
21/06:00pm 22.4 21.1 16.9 71 3.4 S 19 22 10 12 - - 0.0
21/05:30pm 22.6 21.4 17.1 71 3.4 S 19 22 10 12 - - 0.0
21/05:00pm 22.8 21.3 16.4 67 3.9 S 19 22 10 12 - - 0.0
21/04:30pm 22.9 21.6 16.7 68 3.8 S 19 22 10 12 - - 0.0
21/04:00pm 22.8 21.6 17.0 70 3.6 S 19 20 10 11 - - 0.0
21/03:30pm 22.8 21.2 16.4 67 3.9 S 20 24 11 13 - - 0.0
21/03:00pm 22.5 20.4 16.1 67 3.9 S 22 26 12 14 - - 0.0
21/02:30pm 22.7 20.1 16.0 66 4.1 S 24 30 13 16 - - 0.0
21/02:00pm 22.5 20.4 16.3 68 3.8 S 22 26 12 14 - - 0.0
21/01:30pm 22.5 20.4 16.1 67 3.9 S 22 26 12 14 - - 0.0
21/01:00pm 22.4 20.2 16.0 67 3.9 S 22 24 12 13 - - 0.0
21/12:30pm 22.1 19.5 15.9 68 3.7 S 24 28 13 15 - - 0.0
21/12:00pm 22.1 19.5 15.9 68 3.7 S 24 30 13 16 - - 0.0
21/11:30am 22.1 20.1 16.4 70 3.5 S 22 26 12 14 - - 0.0
21/11:00am 22.1 20.1 16.4 70 3.5 S 22 26 12 14 - - 0.0
21/10:30am 21.9 20.1 16.0 69 3.6 S 20 24 11 13 - - 0.0
21/10:00am 21.9 21.2 16.4 71 3.3 SSW 15 20 8 11 - - 0.0
21/09:30am 21.8 19.7 16.1 70 3.4 S 22 26 12 14 - - 0.0
21/09:00am 21.7 19.3 16.4 72 3.2 S 24 30 13 16 - - 17.0
21/08:30am 21.4 18.6 16.4 73 3.0 S 26 32 14 17 - - 17.0
21/08:00am 21.4 19.5 16.8 75 2.8 S 22 26 12 14 - - 17.0
21/07:30am 21.4 19.2 15.9 71 3.3 S 22 28 12 15 - - 17.0
21/07:00am 21.3 20.2 16.3 73 3.0 SSW 17 24 9 13 - - 17.0
21/06:30am 21.3 18.7 16.0 72 3.2 S 24 32 13 17 - - 17.0
21/06:00am 21.2 17.5 16.0 72 3.1 S 30 35 16 19 - - 17.0
21/05:30am 21.3 16.8 16.3 73 3.0 S 35 43 19 23 - - 17.0
21/05:00am 21.3 17.8 16.5 74 2.9 S 30 39 16 21 - - 17.0
21/04:30am 21.4 17.4 16.8 75 2.8 S 33 41 18 22 - - 17.0
21/04:00am 21.5 17.1 16.7 74 2.9 S 35 41 19 22 - - 17.0
21/03:30am 21.8 17.2 17.0 74 2.9 S 37 44 20 24 - - 17.0
21/03:00am 21.9 18.1 17.1 74 2.9 S 33 43 18 23 - - 17.0
21/02:30am 21.8 19.6 17.8 78 2.5 S 26 32 14 17 - - 17.0
21/02:00am 22.2 18.6 17.6 75 2.8 S 33 39 18 21 - - 17.0
21/01:30am 22.3 18.6 17.4 74 3.0 S 33 43 18 23 - - 17.0
21/01:00am 22.3 20.4 18.5 79 2.4 SSW 26 39 14 21 - - 17.0
21/12:30am 22.0 19.7 19.4 85 1.7 SSW 30 43 16 23 - - 17.0
21/12:00am 22.1 19.2 20.0 88 1.3 SSW 35 52 19 28 - - 17.0
 
Date/Time
EDT
Temp
°C
App
Temp
°C
Dew
Point
°C
Rel
Hum
%
Delta-T
°C
Wind Press
QNH
hPa
Press
MSL
hPa
Rain since
9am
mm
Dir  Spd
km/h
Gust
km/h
Spd
kts
Gust
kts
20/11:34pm 22.1 19.5 20.0 88 1.3 SSW 33 57 18 31 - - 17.0
20/11:30pm 22.1 19.1 19.8 87 1.5 SSW 35 48 19 26 - - 17.0
20/11:11pm 25.1 26.2 23.0 88 1.4 W 22 54 12 29 - - 17.0
20/11:00pm 25.3 27.2 23.5 90 1.2 WNW 19 24 10 13 - - 17.0
20/10:30pm 25.4 27.3 23.5 89 1.3 WNW 19 24 10 13 - - 17.0
20/10:00pm 25.5 27.9 23.7 90 1.2 WNW 17 20 9 11 - - 17.0
20/09:30pm 25.3 27.5 23.9 92 1.0 WNW 19 22 10 12 - - 17.0
20/09:00pm 26.0 28.1 23.7 87 1.6 W 19 26 10 14 - - 14.4
20/08:30pm 28.6 32.3 23.3 73 3.6 WNW 9 17 5 9 - - 10.2
20/08:00pm 26.7 29.6 23.8 84 2.0 NNW 15 19 8 10 - - 10.2
20/07:30pm 25.6 29.1 24.2 92 1.0 N 13 17 7 9 - - 10.2
20/07:00pm 26.3 29.2 23.8 86 1.7 NNW 15 19 8 10 - - 10.2
20/06:30pm 25.9 28.2 24.1 90 1.2 N 19 22 10 12 - - 10.2
20/06:00pm 24.9 26.5 23.9 94 0.7 N 22 26 12 14 - - 10.2
20/05:30pm 24.9 26.2 23.3 91 1.1 NNE 22 24 12 13 - - 10.2
20/05:00pm 25.2 27.5 23.4 90 1.2 NNE 17 19 9 10 - - 10.2
20/04:30pm 25.7 28.0 23.4 87 1.6 NNE 17 19 9 10 - - 10.2
20/04:00pm 25.6 27.4 23.5 88 1.4 N 20 24 11 13 - - 10.2
20/03:30pm 25.2 27.0 23.6 91 1.1 N 20 30 11 16 - - 10.2
20/03:00pm 24.5 25.8 23.3 93 0.8 NNW 22 32 12 17 - - 10.2
20/02:30pm 23.7 25.0 22.7 94 0.7 NNW 20 28 11 15 - - 10.2
20/02:00pm 23.7 26.3 22.0 90 1.1 NW 11 13 6 7 - - 6.0
20/01:30pm 24.2 26.6 20.9 82 2.2 NW 9 15 5 8 - - 2.6
20/01:00pm 26.4 27.6 19.8 67 4.3 NW 13 17 7 9 - - 0.0
20/12:30pm 26.6 28.5 19.7 66 4.5 NNW 9 11 5 6 - - 0.0
20/12:00pm 27.1 28.2 19.7 64 4.8 N 13 15 7 8 - - 0.0
20/11:30am 26.4 26.9 19.3 65 4.6 N 15 20 8 11 - - 0.0
20/11:00am 25.8 25.5 19.2 67 4.2 N 19 22 10 12 - - 0.0
20/10:30am 25.3 25.0 19.2 69 3.9 N 19 24 10 13 - - 0.0
20/10:00am 24.3 25.0 18.9 72 3.4 N 13 19 7 10 - - 0.0
20/09:30am 23.6 23.1 18.7 74 3.1 N 19 24 10 13 - - 0.0
20/09:00am 23.8 23.6 18.4 72 3.4 N 17 20 9 11 - - 0.0
20/08:30am 22.6 22.3 18.2 76 2.8 N 17 24 9 13 - - 0.0
20/08:00am 22.0 22.8 18.2 79 2.4 NNW 11 15 6 8 - - 0.0
20/07:30am 21.3 20.8 17.9 81 2.1 NNE 17 20 9 11 - - 0.0
20/07:00am 20.9 21.2 17.9 83 1.9 NNE 13 15 7 8 - - 0.0
20/06:30am 20.8 21.6 18.2 85 1.6 NNE 11 15 6 8 - - 0.0
20/06:00am 20.5 20.9 18.1 86 1.5 NNE 13 15 7 8 - - 0.0
20/05:30am 20.6 21.3 18.0 85 1.6 NNE 11 15 6 8 - - 0.0
20/05:00am 20.5 22.0 18.1 86 1.5 NNE 7 9 4 5 - - 0.0
20/04:30am 20.6 21.7 18.0 85 1.6 NNE 9 13 5 7 - - 0.0
20/04:00am 20.8 20.7 17.8 83 1.9 NNE 15 19 8 10 - - 0.0
20/03:30am 20.9 21.6 17.9 83 1.9 NE 11 19 6 10 - - 0.0
20/03:00am 20.9 20.8 17.9 83 1.9 NE 15 20 8 11 - - 0.0
20/02:30am 20.9 20.4 17.7 82 2.0 NE 17 22 9 12 - - 0.0
20/02:00am 21.0 21.0 18.0 83 1.9 NE 15 22 8 12 - - 0.0
20/01:30am 21.1 21.5 18.1 83 1.9 ENE 13 19 7 10 - - 0.0
20/01:00am 21.3 21.2 17.9 81 2.1 NE 15 20 8 11 - - 0.0
20/12:30am 21.4 20.9 17.8 80 2.2 NE 17 24 9 13 - - 0.0
20/12:00am 21.6 21.4 17.6 78 2.5 NE 15 20 8 11 - - 0.0
 
Date/Time
EDT
Temp
°C
App
Temp
°C
Dew
Point
°C
Rel
Hum
%
Delta-T
°C
Wind Press
QNH
hPa
Press
MSL
hPa
Rain since
9am
mm
Dir  Spd
km/h
Gust
km/h
Spd
kts
Gust
kts
19/11:30pm 21.6 20.5 17.4 77 2.6 NE 19 24 10 13 - - 0.0
19/11:00pm 21.6 19.9 17.2 76 2.7 NE 22 30 12 16 - - 0.0
19/10:30pm 21.7 20.0 17.1 75 2.8 NE 22 32 12 17 - - 0.0
19/10:00pm 21.6 20.2 17.0 75 2.8 ENE 20 32 11 17 - - 0.0
19/09:30pm 21.7 20.3 17.1 75 2.8 NE 20 28 11 15 - - 0.0

Latest Capital City Observations: Canberra | Sydney | Melbourne | Brisbane | Adelaide | Perth | Hobart | Darwin

Other Formats:

Comma delimited format used in spreadsheet applications
http://www.bom.gov.au/fwo/IDN60901/IDN60901.94774.axf

JavaScript Object Notation format (JSON) in row-major order
http://www.bom.gov.au/fwo/IDN60901/IDN60901.94774.json